sensor_id;sensor_type;location;lat;lon;timestamp;temperature;humidity
57106;DHT22;62662;56.788;23.942;2022-10-29T00:00:44;13.40;99.90
57106;DHT22;62662;56.788;23.942;2022-10-29T00:03:11;13.30;99.90
57106;DHT22;62662;56.788;23.942;2022-10-29T00:05:38;13.30;99.90
57106;DHT22;62662;56.788;23.942;2022-10-29T00:08:05;13.40;99.90
57106;DHT22;62662;56.788;23.942;2022-10-29T00:10:32;13.40;99.90
57106;DHT22;62662;56.788;23.942;2022-10-29T00:13:03;13.40;99.90
57106;DHT22;62662;56.788;23.942;2022-10-29T00:15:30;13.40;99.90
57106;DHT22;62662;56.788;23.942;2022-10-29T00:17:57;13.40;99.90
57106;DHT22;62662;56.788;23.942;2022-10-29T00:20:24;13.40;99.90
57106;DHT22;62662;56.788;23.942;2022-10-29T00:22:54;13.40;99.90
57106;DHT22;62662;56.788;23.942;2022-10-29T00:25:21;13.40;99.90
57106;DHT22;62662;56.788;23.942;2022-10-29T00:27:48;13.40;99.90
57106;DHT22;62662;56.788;23.942;2022-10-29T00:30:15;13.40;99.90
57106;DHT22;62662;56.788;23.942;2022-10-29T00:32:42;13.40;99.90
57106;DHT22;62662;56.788;23.942;2022-10-29T00:35:09;13.30;99.90
57106;DHT22;62662;56.788;23.942;2022-10-29T00:37:36;13.40;99.90
57106;DHT22;62662;56.788;23.942;2022-10-29T00:40:03;13.30;99.90
57106;DHT22;62662;56.788;23.942;2022-10-29T00:42:30;13.40;99.90
57106;DHT22;62662;56.788;23.942;2022-10-29T00:44:57;13.30;99.90
57106;DHT22;62662;56.788;23.942;2022-10-29T00:47:35;13.30;99.90
57106;DHT22;62662;56.788;23.942;2022-10-29T00:50:08;13.30;99.90
57106;DHT22;62662;56.788;23.942;2022-10-29T00:52:39;13.30;99.90
57106;DHT22;62662;56.788;23.942;2022-10-29T00:55:10;13.30;99.90
57106;DHT22;62662;56.788;23.942;2022-10-29T00:57:44;13.30;99.90
57106;DHT22;62662;56.788;23.942;2022-10-29T01:00:15;13.30;99.90
57106;DHT22;62662;56.788;23.942;2022-10-29T01:02:43;13.20;99.90
57106;DHT22;62662;56.788;23.942;2022-10-29T01:05:14;13.30;99.90
57106;DHT22;62662;56.788;23.942;2022-10-29T01:07:42;13.30;99.90
57106;DHT22;62662;56.788;23.942;2022-10-29T01:10:10;13.30;99.90
57106;DHT22;62662;56.788;23.942;2022-10-29T01:17:43;13.20;99.90
57106;DHT22;62662;56.788;23.942;2022-10-29T01:20:25;13.20;99.90
57106;DHT22;62662;56.788;23.942;2022-10-29T01:29:09;13.20;99.90
57106;DHT22;62662;56.788;23.942;2022-10-29T01:31:52;13.10;99.90
57106;DHT22;62662;56.788;23.942;2022-10-29T01:37:53;13.10;99.90
57106;DHT22;62662;56.788;23.942;2022-10-29T01:40:06;13.10;99.90
57106;DHT22;62662;56.788;23.942;2022-10-29T01:42:39;13.10;99.90
57106;DHT22;62662;56.788;23.942;2022-10-29T01:45:12;13.10;99.90
57106;DHT22;62662;56.788;23.942;2022-10-29T01:47:50;13.10;99.90
57106;DHT22;62662;56.788;23.942;2022-10-29T01:50:22;13.10;99.90
57106;DHT22;62662;56.788;23.942;2022-10-29T01:52:51;13.00;99.90
57106;DHT22;62662;56.788;23.942;2022-10-29T01:55:21;13.00;99.90
57106;DHT22;62662;56.788;23.942;2022-10-29T01:57:48;13.10;99.90
57106;DHT22;62662;56.788;23.942;2022-10-29T02:00:18;13.10;99.90
57106;DHT22;62662;56.788;23.942;2022-10-29T02:08:43;13.00;99.90
57106;DHT22;62662;56.788;23.942;2022-10-29T02:14:05;13.00;99.90
57106;DHT22;62662;56.788;23.942;2022-10-29T02:16:33;13.00;99.90
57106;DHT22;62662;56.788;23.942;2022-10-29T02:19:00;13.00;99.90
57106;DHT22;62662;56.788;23.942;2022-10-29T02:21:28;13.00;99.90
57106;DHT22;62662;56.788;23.942;2022-10-29T02:23:55;13.00;99.90
57106;DHT22;62662;56.788;23.942;2022-10-29T02:26:22;13.10;99.90
57106;DHT22;62662;56.788;23.942;2022-10-29T02:28:49;13.10;99.90
57106;DHT22;62662;56.788;23.942;2022-10-29T02:31:16;13.00;99.90
57106;DHT22;62662;56.788;23.942;2022-10-29T02:33:43;13.00;99.90
57106;DHT22;62662;56.788;23.942;2022-10-29T02:36:10;13.00;99.90
57106;DHT22;62662;56.788;23.942;2022-10-29T02:38:37;13.00;99.90
57106;DHT22;62662;56.788;23.942;2022-10-29T02:41:04;12.90;99.90
57106;DHT22;62662;56.788;23.942;2022-10-29T02:43:31;12.90;99.90
57106;DHT22;62662;56.788;23.942;2022-10-29T02:46:15;12.90;99.90
57106;DHT22;62662;56.788;23.942;2022-10-29T02:48:43;12.90;99.90
57106;DHT22;62662;56.788;23.942;2022-10-29T02:51:10;12.90;99.90
57106;DHT22;62662;56.788;23.942;2022-10-29T02:53:37;12.90;99.90
57106;DHT22;62662;56.788;23.942;2022-10-29T02:56:05;12.90;99.90
57106;DHT22;62662;56.788;23.942;2022-10-29T02:58:33;12.80;99.90
57106;DHT22;62662;56.788;23.942;2022-10-29T03:01:00;12.80;99.90
57106;DHT22;62662;56.788;23.942;2022-10-29T03:03:27;12.90;99.90
57106;DHT22;62662;56.788;23.942;2022-10-29T03:05:55;12.90;99.90
57106;DHT22;62662;56.788;23.942;2022-10-29T03:08:22;12.90;99.90
57106;DHT22;62662;56.788;23.942;2022-10-29T03:10:49;12.90;99.90
57106;DHT22;62662;56.788;23.942;2022-10-29T03:13:16;13.00;99.90
57106;DHT22;62662;56.788;23.942;2022-10-29T03:15:44;13.00;99.90
57106;DHT22;62662;56.788;23.942;2022-10-29T03:18:11;13.00;99.90
57106;DHT22;62662;56.788;23.942;2022-10-29T03:20:38;12.90;99.90
57106;DHT22;62662;56.788;23.942;2022-10-29T03:23:05;12.90;99.90
57106;DHT22;62662;56.788;23.942;2022-10-29T03:25:32;12.90;99.90
57106;DHT22;62662;56.788;23.942;2022-10-29T03:27:59;13.00;99.90
57106;DHT22;62662;56.788;23.942;2022-10-29T03:30:26;12.90;99.90
57106;DHT22;62662;56.788;23.942;2022-10-29T03:32:53;12.90;99.90
57106;DHT22;62662;56.788;23.942;2022-10-29T03:35:20;12.90;99.90
57106;DHT22;62662;56.788;23.942;2022-10-29T03:37:51;12.90;99.90
57106;DHT22;62662;56.788;23.942;2022-10-29T03:40:18;13.00;99.90
57106;DHT22;62662;56.788;23.942;2022-10-29T03:42:45;13.00;99.90
57106;DHT22;62662;56.788;23.942;2022-10-29T03:45:12;12.90;99.90
57106;DHT22;62662;56.788;23.942;2022-10-29T03:47:39;12.90;99.90
57106;DHT22;62662;56.788;23.942;2022-10-29T03:50:07;12.90;99.90
57106;DHT22;62662;56.788;23.942;2022-10-29T03:52:34;13.00;99.90
57106;DHT22;62662;56.788;23.942;2022-10-29T03:55:02;13.00;99.90
57106;DHT22;62662;56.788;23.942;2022-10-29T03:57:29;13.00;99.90
57106;DHT22;62662;56.788;23.942;2022-10-29T03:59:56;13.00;99.90
57106;DHT22;62662;56.788;23.942;2022-10-29T04:02:23;12.90;99.90
57106;DHT22;62662;56.788;23.942;2022-10-29T04:04:51;13.00;99.90
57106;DHT22;62662;56.788;23.942;2022-10-29T04:07:18;13.00;99.90
57106;DHT22;62662;56.788;23.942;2022-10-29T04:09:45;13.00;99.90
57106;DHT22;62662;56.788;23.942;2022-10-29T04:12:12;13.00;99.90
57106;DHT22;62662;56.788;23.942;2022-10-29T04:14:39;13.00;99.90
57106;DHT22;62662;56.788;23.942;2022-10-29T04:17:11;13.00;99.90
57106;DHT22;62662;56.788;23.942;2022-10-29T04:19:38;13.00;99.90
57106;DHT22;62662;56.788;23.942;2022-10-29T04:22:06;13.00;99.90
57106;DHT22;62662;56.788;23.942;2022-10-29T04:24:52;13.00;99.90
57106;DHT22;62662;56.788;23.942;2022-10-29T04:27:39;13.00;99.90
57106;DHT22;62662;56.788;23.942;2022-10-29T04:30:26;12.90;99.90
57106;DHT22;62662;56.788;23.942;2022-10-29T04:32:57;13.00;99.90
57106;DHT22;62662;56.788;23.942;2022-10-29T04:35:26;12.90;99.90
57106;DHT22;62662;56.788;23.942;2022-10-29T04:37:53;13.00;99.90
57106;DHT22;62662;56.788;23.942;2022-10-29T04:40:24;12.90;99.90
57106;DHT22;62662;56.788;23.942;2022-10-29T04:42:51;13.00;99.90
57106;DHT22;62662;56.788;23.942;2022-10-29T04:45:18;12.90;99.90
57106;DHT22;62662;56.788;23.942;2022-10-29T04:47:45;12.90;99.90
57106;DHT22;62662;56.788;23.942;2022-10-29T04:50:12;12.90;99.90
57106;DHT22;62662;56.788;23.942;2022-10-29T04:52:39;12.90;99.90
57106;DHT22;62662;56.788;23.942;2022-10-29T04:55:07;12.80;99.90
57106;DHT22;62662;56.788;23.942;2022-10-29T04:57:34;12.80;99.90
57106;DHT22;62662;56.788;23.942;2022-10-29T05:00:01;12.90;99.90
57106;DHT22;62662;56.788;23.942;2022-10-29T05:02:29;12.90;99.90
57106;DHT22;62662;56.788;23.942;2022-10-29T05:04:56;12.90;99.90
57106;DHT22;62662;56.788;23.942;2022-10-29T05:07:23;13.00;99.90
57106;DHT22;62662;56.788;23.942;2022-10-29T05:09:50;12.90;99.90
57106;DHT22;62662;56.788;23.942;2022-10-29T05:12:17;12.90;99.90
57106;DHT22;62662;56.788;23.942;2022-10-29T05:14:43;12.90;99.90
57106;DHT22;62662;56.788;23.942;2022-10-29T05:17:10;12.90;99.90
57106;DHT22;62662;56.788;23.942;2022-10-29T05:19:37;12.90;99.90
57106;DHT22;62662;56.788;23.942;2022-10-29T05:22:05;12.90;99.90
57106;DHT22;62662;56.788;23.942;2022-10-29T05:24:32;12.90;99.90
57106;DHT22;62662;56.788;23.942;2022-10-29T05:26:58;13.00;99.90
57106;DHT22;62662;56.788;23.942;2022-10-29T05:29:25;13.00;99.90
57106;DHT22;62662;56.788;23.942;2022-10-29T05:31:53;13.00;99.90
57106;DHT22;62662;56.788;23.942;2022-10-29T05:34:20;13.00;99.90
57106;DHT22;62662;56.788;23.942;2022-10-29T05:36:47;12.90;99.90
57106;DHT22;62662;56.788;23.942;2022-10-29T05:39:14;13.00;99.90
57106;DHT22;62662;56.788;23.942;2022-10-29T05:41:41;13.00;99.90
57106;DHT22;62662;56.788;23.942;2022-10-29T05:44:09;13.00;99.90
57106;DHT22;62662;56.788;23.942;2022-10-29T05:46:36;13.00;99.90
57106;DHT22;62662;56.788;23.942;2022-10-29T05:49:03;13.00;99.90
57106;DHT22;62662;56.788;23.942;2022-10-29T05:51:30;13.00;99.90
57106;DHT22;62662;56.788;23.942;2022-10-29T05:53:57;13.10;99.90
57106;DHT22;62662;56.788;23.942;2022-10-29T05:56:24;13.10;99.90
57106;DHT22;62662;56.788;23.942;2022-10-29T05:58:51;13.00;99.90
57106;DHT22;62662;56.788;23.942;2022-10-29T06:01:19;13.00;99.90
57106;DHT22;62662;56.788;23.942;2022-10-29T06:03:46;13.00;99.90
57106;DHT22;62662;56.788;23.942;2022-10-29T06:06:13;13.00;99.90
57106;DHT22;62662;56.788;23.942;2022-10-29T06:08:40;13.10;99.90
57106;DHT22;62662;56.788;23.942;2022-10-29T06:11:07;13.10;99.90
57106;DHT22;62662;56.788;23.942;2022-10-29T06:13:35;13.10;99.90
57106;DHT22;62662;56.788;23.942;2022-10-29T06:16:02;13.10;99.90
57106;DHT22;62662;56.788;23.942;2022-10-29T06:18:29;13.10;99.90
57106;DHT22;62662;56.788;23.942;2022-10-29T06:20:58;13.10;99.90
57106;DHT22;62662;56.788;23.942;2022-10-29T06:23:26;13.10;99.90
57106;DHT22;62662;56.788;23.942;2022-10-29T06:25:53;13.10;99.90
57106;DHT22;62662;56.788;23.942;2022-10-29T06:28:21;13.10;99.90
57106;DHT22;62662;56.788;23.942;2022-10-29T06:30:49;13.10;99.90
57106;DHT22;62662;56.788;23.942;2022-10-29T06:33:17;13.10;99.90
57106;DHT22;62662;56.788;23.942;2022-10-29T06:35:44;13.10;99.90
57106;DHT22;62662;56.788;23.942;2022-10-29T06:38:12;13.10;99.90
57106;DHT22;62662;56.788;23.942;2022-10-29T06:40:40;13.10;99.90
57106;DHT22;62662;56.788;23.942;2022-10-29T06:43:10;13.10;99.90
57106;DHT22;62662;56.788;23.942;2022-10-29T06:45:37;13.10;99.90
57106;DHT22;62662;56.788;23.942;2022-10-29T06:48:05;13.10;99.90
57106;DHT22;62662;56.788;23.942;2022-10-29T06:50:32;13.10;99.90
57106;DHT22;62662;56.788;23.942;2022-10-29T06:53:02;13.10;99.90
57106;DHT22;62662;56.788;23.942;2022-10-29T06:55:30;13.10;99.90
57106;DHT22;62662;56.788;23.942;2022-10-29T06:58:03;13.10;99.90
57106;DHT22;62662;56.788;23.942;2022-10-29T07:00:31;13.10;99.90
57106;DHT22;62662;56.788;23.942;2022-10-29T07:02:59;13.00;99.90
57106;DHT22;62662;56.788;23.942;2022-10-29T07:05:26;13.10;99.90
57106;DHT22;62662;56.788;23.942;2022-10-29T07:07:55;13.10;99.90
57106;DHT22;62662;56.788;23.942;2022-10-29T07:10:26;13.10;99.90
57106;DHT22;62662;56.788;23.942;2022-10-29T07:12:53;13.10;99.90
57106;DHT22;62662;56.788;23.942;2022-10-29T07:15:21;13.10;99.90
57106;DHT22;62662;56.788;23.942;2022-10-29T07:18:03;13.10;99.90
57106;DHT22;62662;56.788;23.942;2022-10-29T07:20:35;13.10;99.90
57106;DHT22;62662;56.788;23.942;2022-10-29T07:23:03;13.10;99.90
57106;DHT22;62662;56.788;23.942;2022-10-29T07:25:31;13.20;99.90
57106;DHT22;62662;56.788;23.942;2022-10-29T07:28:06;13.20;99.90
57106;DHT22;62662;56.788;23.942;2022-10-29T07:30:33;13.20;99.90
57106;DHT22;62662;56.788;23.942;2022-10-29T07:33:01;13.20;99.90
57106;DHT22;62662;56.788;23.942;2022-10-29T07:35:28;13.20;99.90
57106;DHT22;62662;56.788;23.942;2022-10-29T07:37:59;13.20;99.90
57106;DHT22;62662;56.788;23.942;2022-10-29T07:40:34;13.20;99.90
57106;DHT22;62662;56.788;23.942;2022-10-29T07:43:02;13.30;99.90
57106;DHT22;62662;56.788;23.942;2022-10-29T07:45:29;13.30;99.90
57106;DHT22;62662;56.788;23.942;2022-10-29T07:48:01;13.40;99.90
57106;DHT22;62662;56.788;23.942;2022-10-29T07:50:30;13.40;99.90
57106;DHT22;62662;56.788;23.942;2022-10-29T07:52:59;13.40;99.90
57106;DHT22;62662;56.788;23.942;2022-10-29T07:55:27;13.40;99.90
57106;DHT22;62662;56.788;23.942;2022-10-29T07:58:03;13.50;99.90
57106;DHT22;62662;56.788;23.942;2022-10-29T08:00:33;13.50;99.90
57106;DHT22;62662;56.788;23.942;2022-10-29T08:03:00;13.60;99.90
57106;DHT22;62662;56.788;23.942;2022-10-29T08:05:28;13.60;99.90
57106;DHT22;62662;56.788;23.942;2022-10-29T08:07:56;13.60;99.90
57106;DHT22;62662;56.788;23.942;2022-10-29T08:10:24;13.70;99.90
57106;DHT22;62662;56.788;23.942;2022-10-29T08:12:55;13.80;99.90
57106;DHT22;62662;56.788;23.942;2022-10-29T08:15:26;13.80;99.90
57106;DHT22;62662;56.788;23.942;2022-10-29T08:17:55;13.90;99.90
57106;DHT22;62662;56.788;23.942;2022-10-29T08:20:24;13.90;99.90
57106;DHT22;62662;56.788;23.942;2022-10-29T08:22:52;13.90;99.90
57106;DHT22;62662;56.788;23.942;2022-10-29T08:25:20;13.90;99.90
57106;DHT22;62662;56.788;23.942;2022-10-29T08:28:03;13.90;99.90
57106;DHT22;62662;56.788;23.942;2022-10-29T08:30:31;13.90;99.90
57106;DHT22;62662;56.788;23.942;2022-10-29T08:32:58;13.90;99.90
57106;DHT22;62662;56.788;23.942;2022-10-29T08:35:27;13.90;99.90
57106;DHT22;62662;56.788;23.942;2022-10-29T08:37:54;14.00;99.90
57106;DHT22;62662;56.788;23.942;2022-10-29T08:40:48;14.10;99.90
57106;DHT22;62662;56.788;23.942;2022-10-29T08:46:01;14.10;99.90
57106;DHT22;62662;56.788;23.942;2022-10-29T08:48:38;14.20;99.90
57106;DHT22;62662;56.788;23.942;2022-10-29T08:53:46;14.30;99.90
57106;DHT22;62662;56.788;23.942;2022-10-29T08:56:36;14.30;99.90
57106;DHT22;62662;56.788;23.942;2022-10-29T08:59:19;14.40;99.90
57106;DHT22;62662;56.788;23.942;2022-10-29T09:01:47;14.50;99.90
57106;DHT22;62662;56.788;23.942;2022-10-29T09:04:35;14.50;99.90
57106;DHT22;62662;56.788;23.942;2022-10-29T09:07:17;14.50;99.90
57106;DHT22;62662;56.788;23.942;2022-10-29T09:12:36;14.50;99.90
57106;DHT22;62662;56.788;23.942;2022-10-29T09:15:23;14.50;99.90
57106;DHT22;62662;56.788;23.942;2022-10-29T09:21:10;14.50;99.90
57106;DHT22;62662;56.788;23.942;2022-10-29T09:26:36;14.60;99.90
57106;DHT22;62662;56.788;23.942;2022-10-29T09:32:02;14.70;99.90
57106;DHT22;62662;56.788;23.942;2022-10-29T09:35:00;14.80;99.90
57106;DHT22;62662;56.788;23.942;2022-10-29T09:37:55;14.80;99.90
57106;DHT22;62662;56.788;23.942;2022-10-29T09:40:37;14.90;99.90
57106;DHT22;62662;56.788;23.942;2022-10-29T09:48:44;15.20;99.90
57106;DHT22;62662;56.788;23.942;2022-10-29T09:53:58;15.30;99.90
57106;DHT22;62662;56.788;23.942;2022-10-29T09:56:26;15.40;99.90
57106;DHT22;62662;56.788;23.942;2022-10-29T09:59:06;15.40;99.90
57106;DHT22;62662;56.788;23.942;2022-10-29T10:01:36;15.40;99.90
57106;DHT22;62662;56.788;23.942;2022-10-29T10:04:12;15.30;99.90
57106;DHT22;62662;56.788;23.942;2022-10-29T10:07:06;15.20;99.90
57106;DHT22;62662;56.788;23.942;2022-10-29T10:09:54;15.30;99.90
57106;DHT22;62662;56.788;23.942;2022-10-29T10:12:25;15.30;99.90
57106;DHT22;62662;56.788;23.942;2022-10-29T10:20:35;15.20;99.90
57106;DHT22;62662;56.788;23.942;2022-10-29T10:23:24;15.10;99.90
57106;DHT22;62662;56.788;23.942;2022-10-29T10:25:56;15.10;99.90
57106;DHT22;62662;56.788;23.942;2022-10-29T10:28:31;15.10;99.90
57106;DHT22;62662;56.788;23.942;2022-10-29T10:31:14;15.20;99.90
57106;DHT22;62662;56.788;23.942;2022-10-29T10:33:52;15.20;99.90
57106;DHT22;62662;56.788;23.942;2022-10-29T10:36:22;15.10;99.90
57106;DHT22;62662;56.788;23.942;2022-10-29T10:38:55;15.20;99.90
57106;DHT22;62662;56.788;23.942;2022-10-29T10:41:27;15.10;99.90
57106;DHT22;62662;56.788;23.942;2022-10-29T10:43:59;15.10;99.90
57106;DHT22;62662;56.788;23.942;2022-10-29T10:46:32;15.30;99.90
57106;DHT22;62662;56.788;23.942;2022-10-29T10:51:41;15.50;99.90
57106;DHT22;62662;56.788;23.942;2022-10-29T11:05:30;15.50;99.90
57106;DHT22;62662;56.788;23.942;2022-10-29T11:10:56;15.40;99.90
57106;DHT22;62662;56.788;23.942;2022-10-29T11:13:28;15.50;99.90
57106;DHT22;62662;56.788;23.942;2022-10-29T11:16:24;15.50;99.90
57106;DHT22;62662;56.788;23.942;2022-10-29T11:19:00;15.50;99.90
57106;DHT22;62662;56.788;23.942;2022-10-29T11:22:31;15.40;99.90
57106;DHT22;62662;56.788;23.942;2022-10-29T11:25:05;15.40;99.90
57106;DHT22;62662;56.788;23.942;2022-10-29T11:30:43;15.30;99.90
57106;DHT22;62662;56.788;23.942;2022-10-29T11:33:33;15.30;99.90
57106;DHT22;62662;56.788;23.942;2022-10-29T11:36:26;15.10;99.90
57106;DHT22;62662;56.788;23.942;2022-10-29T11:38:58;15.20;99.90
57106;DHT22;62662;56.788;23.942;2022-10-29T11:43:59;15.10;99.90
57106;DHT22;62662;56.788;23.942;2022-10-29T11:52:12;15.10;99.90
57106;DHT22;62662;56.788;23.942;2022-10-29T11:58:24;15.10;99.90
57106;DHT22;62662;56.788;23.942;2022-10-29T12:00:21;15.10;99.90
57106;DHT22;62662;56.788;23.942;2022-10-29T12:05:45;15.00;99.90
57106;DHT22;62662;56.788;23.942;2022-10-29T12:11:36;15.00;99.90
57106;DHT22;62662;56.788;23.942;2022-10-29T12:14:20;14.90;99.90
57106;DHT22;62662;56.788;23.942;2022-10-29T12:19:45;15.10;99.90
57106;DHT22;62662;56.788;23.942;2022-10-29T12:22:26;15.10;99.90
57106;DHT22;62662;56.788;23.942;2022-10-29T12:30:22;15.30;99.90
57106;DHT22;62662;56.788;23.942;2022-10-29T12:41:18;15.30;99.90
57106;DHT22;62662;56.788;23.942;2022-10-29T12:43:47;15.20;99.90
57106;DHT22;62662;56.788;23.942;2022-10-29T12:46:37;15.30;99.90
57106;DHT22;62662;56.788;23.942;2022-10-29T12:51:57;15.10;99.90
57106;DHT22;62662;56.788;23.942;2022-10-29T12:54:38;15.10;99.90
57106;DHT22;62662;56.788;23.942;2022-10-29T12:59:39;15.30;99.90
57106;DHT22;62662;56.788;23.942;2022-10-29T13:05:33;15.10;99.90
57106;DHT22;62662;56.788;23.942;2022-10-29T13:15:56;14.90;99.90
57106;DHT22;62662;56.788;23.942;2022-10-29T13:21:53;14.70;99.90
57106;DHT22;62662;56.788;23.942;2022-10-29T13:24:21;14.70;99.90
57106;DHT22;62662;56.788;23.942;2022-10-29T13:30:11;14.60;99.90
57106;DHT22;62662;56.788;23.942;2022-10-29T13:32:37;14.50;99.90
57106;DHT22;62662;56.788;23.942;2022-10-29T13:40:39;14.30;99.90
57106;DHT22;62662;56.788;23.942;2022-10-29T13:43:16;14.30;99.90
57106;DHT22;62662;56.788;23.942;2022-10-29T13:45:51;14.30;99.90
57106;DHT22;62662;56.788;23.942;2022-10-29T13:48:35;14.30;99.90
57106;DHT22;62662;56.788;23.942;2022-10-29T13:51:07;14.30;99.90
57106;DHT22;62662;56.788;23.942;2022-10-29T13:56:09;14.30;99.90
57106;DHT22;62662;56.788;23.942;2022-10-29T13:58:42;14.20;99.90
57106;DHT22;62662;56.788;23.942;2022-10-29T14:01:14;14.20;99.90
57106;DHT22;62662;56.788;23.942;2022-10-29T14:06:16;14.00;99.90
57106;DHT22;62662;56.788;23.942;2022-10-29T14:08:52;13.90;99.90
57106;DHT22;62662;56.788;23.942;2022-10-29T14:11:26;13.90;99.90
57106;DHT22;62662;56.788;23.942;2022-10-29T14:13:58;13.90;99.90
57106;DHT22;62662;56.788;23.942;2022-10-29T14:16:29;13.80;99.90
57106;DHT22;62662;56.788;23.942;2022-10-29T14:19:13;13.70;99.90
57106;DHT22;62662;56.788;23.942;2022-10-29T14:21:40;13.70;99.90
57106;DHT22;62662;56.788;23.942;2022-10-29T14:24:10;13.60;99.90
57106;DHT22;62662;56.788;23.942;2022-10-29T14:26:39;13.50;99.90
57106;DHT22;62662;56.788;23.942;2022-10-29T14:31:41;13.40;99.90
57106;DHT22;62662;56.788;23.942;2022-10-29T14:34:25;13.40;99.90
57106;DHT22;62662;56.788;23.942;2022-10-29T14:36:56;13.40;99.90
57106;DHT22;62662;56.788;23.942;2022-10-29T14:39:40;13.30;99.90
57106;DHT22;62662;56.788;23.942;2022-10-29T14:42:30;13.30;99.90
57106;DHT22;62662;56.788;23.942;2022-10-29T14:45:07;13.20;99.90
57106;DHT22;62662;56.788;23.942;2022-10-29T14:47:41;13.20;99.90
57106;DHT22;62662;56.788;23.942;2022-10-29T14:50:19;13.10;99.90
57106;DHT22;62662;56.788;23.942;2022-10-29T14:52:59;13.10;99.90
57106;DHT22;62662;56.788;23.942;2022-10-29T14:55:33;13.10;99.90
57106;DHT22;62662;56.788;23.942;2022-10-29T14:58:11;13.10;99.90
57106;DHT22;62662;56.788;23.942;2022-10-29T15:03:21;13.00;99.90
57106;DHT22;62662;56.788;23.942;2022-10-29T15:05:49;12.90;99.90
57106;DHT22;62662;56.788;23.942;2022-10-29T15:08:22;12.90;99.90
57106;DHT22;62662;56.788;23.942;2022-10-29T15:10:56;12.80;99.90
57106;DHT22;62662;56.788;23.942;2022-10-29T15:16:01;12.80;99.90
57106;DHT22;62662;56.788;23.942;2022-10-29T15:18:30;12.80;99.90
57106;DHT22;62662;56.788;23.942;2022-10-29T15:20:59;12.70;99.90
57106;DHT22;62662;56.788;23.942;2022-10-29T15:23:30;12.70;99.90
57106;DHT22;62662;56.788;23.942;2022-10-29T15:26:03;12.60;99.90
57106;DHT22;62662;56.788;23.942;2022-10-29T15:28:36;12.50;99.90
57106;DHT22;62662;56.788;23.942;2022-10-29T15:31:05;12.50;99.90
57106;DHT22;62662;56.788;23.942;2022-10-29T15:33:34;12.40;99.90
57106;DHT22;62662;56.788;23.942;2022-10-29T15:36:03;12.40;99.90
57106;DHT22;62662;56.788;23.942;2022-10-29T15:43:55;12.30;99.90
57106;DHT22;62662;56.788;23.942;2022-10-29T15:46:31;12.20;99.90
57106;DHT22;62662;56.788;23.942;2022-10-29T15:49:00;12.20;99.90
57106;DHT22;62662;56.788;23.942;2022-10-29T15:51:29;12.20;99.90
57106;DHT22;62662;56.788;23.942;2022-10-29T15:54:01;12.00;99.90
57106;DHT22;62662;56.788;23.942;2022-10-29T15:56:29;11.90;99.90
57106;DHT22;62662;56.788;23.942;2022-10-29T15:58:58;11.90;99.90
57106;DHT22;62662;56.788;23.942;2022-10-29T16:01:26;11.90;99.90
57106;DHT22;62662;56.788;23.942;2022-10-29T16:03:53;11.80;99.90
57106;DHT22;62662;56.788;23.942;2022-10-29T16:06:20;11.70;99.90
57106;DHT22;62662;56.788;23.942;2022-10-29T16:08:52;11.70;99.90
57106;DHT22;62662;56.788;23.942;2022-10-29T16:11:23;11.70;99.90
57106;DHT22;62662;56.788;23.942;2022-10-29T16:13:51;11.70;99.90
57106;DHT22;62662;56.788;23.942;2022-10-29T16:16:23;11.60;99.90
57106;DHT22;62662;56.788;23.942;2022-10-29T16:18:50;11.60;99.90
57106;DHT22;62662;56.788;23.942;2022-10-29T16:21:21;11.60;99.90
57106;DHT22;62662;56.788;23.942;2022-10-29T16:23:49;11.60;99.90
57106;DHT22;62662;56.788;23.942;2022-10-29T16:26:20;11.50;99.90
57106;DHT22;62662;56.788;23.942;2022-10-29T16:28:47;11.50;99.90
57106;DHT22;62662;56.788;23.942;2022-10-29T16:31:23;11.40;99.90
57106;DHT22;62662;56.788;23.942;2022-10-29T16:33:53;11.30;99.90
57106;DHT22;62662;56.788;23.942;2022-10-29T16:36:21;11.30;99.90
57106;DHT22;62662;56.788;23.942;2022-10-29T16:38:48;11.20;99.90
57106;DHT22;62662;56.788;23.942;2022-10-29T16:41:17;11.20;99.90
57106;DHT22;62662;56.788;23.942;2022-10-29T16:43:45;11.10;99.90
57106;DHT22;62662;56.788;23.942;2022-10-29T16:46:13;11.10;99.90
57106;DHT22;62662;56.788;23.942;2022-10-29T16:48:40;11.10;99.90
57106;DHT22;62662;56.788;23.942;2022-10-29T16:51:08;11.10;99.90
57106;DHT22;62662;56.788;23.942;2022-10-29T16:53:36;11.10;99.90
57106;DHT22;62662;56.788;23.942;2022-10-29T16:56:04;11.00;99.90
57106;DHT22;62662;56.788;23.942;2022-10-29T16:58:32;11.00;99.90
57106;DHT22;62662;56.788;23.942;2022-10-29T17:01:03;11.00;99.90
57106;DHT22;62662;56.788;23.942;2022-10-29T17:03:31;10.90;99.90
57106;DHT22;62662;56.788;23.942;2022-10-29T17:06:07;10.90;99.90
57106;DHT22;62662;56.788;23.942;2022-10-29T17:08:35;11.00;99.90
57106;DHT22;62662;56.788;23.942;2022-10-29T17:11:04;10.90;99.90
57106;DHT22;62662;56.788;23.942;2022-10-29T17:13:35;10.90;99.90
57106;DHT22;62662;56.788;23.942;2022-10-29T17:16:09;11.00;99.90
57106;DHT22;62662;56.788;23.942;2022-10-29T17:18:37;10.90;99.90
57106;DHT22;62662;56.788;23.942;2022-10-29T17:21:04;10.90;99.90
57106;DHT22;62662;56.788;23.942;2022-10-29T17:23:32;10.80;99.90
57106;DHT22;62662;56.788;23.942;2022-10-29T17:26:02;10.80;99.90
57106;DHT22;62662;56.788;23.942;2022-10-29T17:28:33;10.80;99.90
57106;DHT22;62662;56.788;23.942;2022-10-29T17:31:06;10.80;99.90
57106;DHT22;62662;56.788;23.942;2022-10-29T17:33:34;10.70;99.90
57106;DHT22;62662;56.788;23.942;2022-10-29T17:36:10;10.80;99.90
57106;DHT22;62662;56.788;23.942;2022-10-29T17:38:39;10.80;99.90
57106;DHT22;62662;56.788;23.942;2022-10-29T17:41:06;10.70;99.90
57106;DHT22;62662;56.788;23.942;2022-10-29T17:43:33;10.70;99.90
57106;DHT22;62662;56.788;23.942;2022-10-29T17:46:01;10.70;99.90
57106;DHT22;62662;56.788;23.942;2022-10-29T17:48:28;10.70;99.90
57106;DHT22;62662;56.788;23.942;2022-10-29T17:50:58;10.70;99.90
57106;DHT22;62662;56.788;23.942;2022-10-29T17:53:27;10.70;99.90
57106;DHT22;62662;56.788;23.942;2022-10-29T17:55:59;10.70;99.90
57106;DHT22;62662;56.788;23.942;2022-10-29T17:58:26;10.70;99.90
57106;DHT22;62662;56.788;23.942;2022-10-29T18:00:54;10.70;99.90
57106;DHT22;62662;56.788;23.942;2022-10-29T18:03:24;10.70;99.90
57106;DHT22;62662;56.788;23.942;2022-10-29T18:05:58;10.60;99.90
57106;DHT22;62662;56.788;23.942;2022-10-29T18:08:25;10.60;99.90
57106;DHT22;62662;56.788;23.942;2022-10-29T18:11:14;10.60;99.90
57106;DHT22;62662;56.788;23.942;2022-10-29T18:13:43;10.60;99.90